createdAt,value
2019-04-11T00:00:33.543Z,-6.3
2019-04-11T00:01:35.608Z,-6.4
2019-04-11T00:02:20.599Z,-6.4
2019-04-11T00:03:11.565Z,-6.4
2019-04-11T00:04:02.434Z,-6.5
2019-04-11T00:04:54.368Z,-6.6
2019-04-11T00:05:45.563Z,-6.6
2019-04-11T00:06:36.442Z,-6.5
2019-04-11T00:07:27.986Z,-6.5
2019-04-11T00:08:19.641Z,-6.6
2019-04-11T00:09:10.569Z,-6.6
2019-04-11T00:10:01.442Z,-6.6
2019-04-11T00:10:53.418Z,-6.6
2019-04-11T00:11:44.402Z,-6.6
2019-04-11T00:12:35.271Z,-6.5
2019-04-11T00:13:28.340Z,-6.6
2019-04-11T00:14:19.998Z,-6.6
2019-04-11T00:15:10.939Z,-6.5
2019-04-11T00:16:01.814Z,-6.5
2019-04-11T00:16:53.330Z,-6.5
2019-04-11T00:17:44.293Z,-6.5
2019-04-11T00:18:35.193Z,-6.4
2019-04-11T00:19:26.075Z,-6.4
2019-04-11T00:20:17.982Z,-6.4
2019-04-11T00:21:08.921Z,-6.4
2019-04-11T00:21:59.798Z,-6.4
2019-04-11T00:22:51.487Z,-6.3
2019-04-11T00:23:43.339Z,-6.3
2019-04-11T00:24:34.560Z,-6.2
2019-04-11T00:25:25.520Z,-6.3
2019-04-11T00:26:16.415Z,-6.3
2019-04-11T00:27:07.308Z,-6.3
2019-04-11T00:27:59.308Z,-6.2
2019-04-11T00:28:50.269Z,-6.2
2019-04-11T00:29:41.138Z,-6.2
2019-04-11T00:30:32.332Z,-6.2
2019-04-11T00:31:23.263Z,-6.2
2019-04-11T00:32:14.148Z,-6.2
2019-04-11T00:33:05.685Z,-6.2
2019-04-11T00:33:56.658Z,-6.2
2019-04-11T00:34:47.528Z,-6.2
2019-04-11T00:35:38.398Z,-6.2
2019-04-11T00:36:30.247Z,-6.2
2019-04-11T00:37:21.395Z,-6.2
2019-04-11T00:38:12.278Z,-6.2
2019-04-11T00:39:03.487Z,-6.1
2019-04-11T00:39:54.404Z,-6.1
2019-04-11T00:40:45.803Z,-6.1
2019-04-11T00:41:37.713Z,-6
2019-04-11T00:42:28.640Z,-5.9
2019-04-11T00:43:30.425Z,-5.9
2019-04-11T00:44:15.362Z,-5.9
2019-04-11T00:45:07.418Z,-5.7
2019-04-11T00:45:58.485Z,-5.7
2019-04-11T00:46:49.429Z,-5.6
2019-04-11T00:47:43.088Z,-5.6
2019-04-11T00:48:33.967Z,-5.6
2019-04-11T00:49:24.880Z,-5.5
2019-04-11T00:50:15.954Z,-5.4
2019-04-11T00:51:07.686Z,-5.3
2019-04-11T00:51:58.634Z,-5.2
2019-04-11T00:52:49.681Z,-5.2
2019-04-11T00:53:40.597Z,-5.1
2019-04-11T00:54:31.498Z,-5
2019-04-11T00:55:22.369Z,-5
2019-04-11T00:56:13.251Z,-4.9
2019-04-11T00:57:04.422Z,-4.9
2019-04-11T00:57:55.335Z,-4.9
2019-04-11T00:58:46.251Z,-4.9
2019-04-11T00:59:37.119Z,-5
2019-04-11T01:00:29.062Z,-5
2019-04-11T01:01:20.057Z,-5
2019-04-11T01:02:11.508Z,-5.1
2019-04-11T01:03:07.477Z,-5.1
2019-04-11T01:03:59.171Z,-5.1
2019-04-11T01:04:50.845Z,-5.1
2019-04-11T01:05:41.751Z,-5.1
2019-04-11T01:06:32.628Z,-5.2
2019-04-11T01:07:23.500Z,-5.2
2019-04-11T01:08:15.578Z,-5.3
2019-04-11T01:09:06.565Z,-5.4
2019-04-11T01:09:57.432Z,-5.4
2019-04-11T01:10:48.302Z,-5.4
2019-04-11T01:11:40.285Z,-5.4
2019-04-11T01:12:32.252Z,-5.5
2019-04-11T01:13:23.778Z,-5.6
2019-04-11T01:14:15.317Z,-5.6
2019-04-11T01:15:07.024Z,-5.6
2019-04-11T01:15:57.969Z,-5.7
2019-04-11T01:16:48.836Z,-5.7
2019-04-11T01:17:39.715Z,-5.7
2019-04-11T01:18:30.577Z,-5.7
2019-04-11T01:19:22.529Z,-5.7
2019-04-11T01:20:13.460Z,-5.8
2019-04-11T01:21:04.327Z,-5.8
2019-04-11T01:21:55.193Z,-5.8
2019-04-11T01:22:46.579Z,-5.9
2019-04-11T01:23:37.504Z,-6
2019-04-11T01:24:28.406Z,-5.9
2019-04-11T01:25:20.095Z,-6
2019-04-11T01:26:11.022Z,-6
2019-04-11T01:27:01.891Z,-6
2019-04-11T01:27:52.759Z,-5.9
2019-04-11T01:28:44.893Z,-5.9
2019-04-11T01:29:35.847Z,-5.9
2019-04-11T01:30:26.980Z,-5.8
2019-04-11T01:31:17.916Z,-5.7
2019-04-11T01:32:08.784Z,-5.7
2019-04-11T01:32:59.658Z,-5.7
2019-04-11T01:33:51.703Z,-5.6
2019-04-11T01:34:42.687Z,-5.6
2019-04-11T01:35:33.564Z,-5.6
2019-04-11T01:36:24.431Z,-5.6
2019-04-11T01:37:15.560Z,-5.5
2019-04-11T01:38:06.483Z,-5.4
2019-04-11T01:38:57.355Z,-5.4
2019-04-11T01:39:49.540Z,-5.4
2019-04-11T01:40:44.027Z,-5.5
2019-04-11T01:41:34.902Z,-5.5
2019-04-11T01:42:26.951Z,-5.6
2019-04-11T01:43:17.916Z,-5.6
2019-04-11T01:44:09.016Z,-5.5
2019-04-11T01:45:00.932Z,-5.4
2019-04-11T01:45:51.903Z,-5.4
2019-04-11T01:46:42.774Z,-5.2
2019-04-11T01:47:33.649Z,-5.2
2019-04-11T01:48:25.667Z,-5.1
2019-04-11T01:49:16.614Z,-5.1
2019-04-11T01:50:08.417Z,-5
2019-04-11T01:50:59.349Z,-4.9
2019-04-11T01:51:50.228Z,-4.8
2019-04-11T01:52:41.154Z,-4.7
2019-04-11T01:53:33.058Z,-4.7
2019-04-11T01:54:24.019Z,-4.6
2019-04-11T01:55:14.922Z,-4.6
2019-04-11T01:56:05.795Z,-4.6
2019-04-11T01:56:57.873Z,-4.6
2019-04-11T01:57:49.863Z,-4.6
2019-04-11T01:58:44.484Z,-4.6
2019-04-11T01:59:35.497Z,-4.6
2019-04-11T02:00:26.421Z,-4.6
2019-04-11T02:01:17.296Z,-4.5
2019-04-11T02:02:08.161Z,-4.4
2019-04-11T02:02:59.105Z,-4.4
2019-04-11T02:03:49.997Z,-4.4
2019-04-11T02:05:36.948Z,-4.2
2019-04-11T02:06:27.878Z,-4.2
2019-04-11T02:07:18.747Z,-4.2
2019-04-11T02:08:09.616Z,-4.1
2019-04-11T02:09:00.488Z,-4.1
2019-04-11T02:09:52.492Z,-4.1
2019-04-11T02:10:43.534Z,-4.1
2019-04-11T02:11:34.407Z,-4.1
2019-04-11T02:12:25.287Z,-4.1
2019-04-11T02:13:16.158Z,-4.1
2019-04-11T02:14:12.387Z,-4.1
2019-04-11T02:15:03.890Z,-4.2
2019-04-11T02:15:56.790Z,-4.2
2019-04-11T02:16:49.602Z,-4.2
2019-04-11T02:17:41.671Z,-4.2
2019-04-11T02:18:32.539Z,-4.2
2019-04-11T02:19:23.852Z,-4.2
2019-04-11T02:20:14.854Z,-4.2
2019-04-11T02:21:05.728Z,-4.1
2019-04-11T02:21:56.606Z,-4.1
2019-04-11T02:22:48.668Z,-4.1
2019-04-11T02:23:39.597Z,-4.1
2019-04-11T02:24:30.471Z,-4
2019-04-11T02:25:22.398Z,-4.1
2019-04-11T02:26:13.519Z,-4.1
2019-04-11T02:27:04.386Z,-4.1
2019-04-11T02:27:56.029Z,-4.1
2019-04-11T02:28:46.965Z,-4.1
2019-04-11T02:29:37.842Z,-4.2
2019-04-11T02:30:30.505Z,-4.2
2019-04-11T02:31:22.758Z,-4.3
2019-04-11T02:32:15.598Z,-4.4
2019-04-11T02:33:07.575Z,-4.4
2019-04-11T02:34:01.877Z,-4.5
2019-04-11T02:34:56.942Z,-4.6
2019-04-11T02:35:49.526Z,-4.6
2019-04-11T02:36:46.576Z,-4.7
2019-04-11T02:37:37.994Z,-4.7
2019-04-11T02:38:30.487Z,-4.8
2019-04-11T02:39:22.802Z,-4.9
2019-04-11T02:40:15.520Z,-5
2019-04-11T02:41:08.521Z,-5.1
2019-04-11T02:42:01.247Z,-5.2
2019-04-11T02:42:52.290Z,-5.3
2019-04-11T02:43:44.405Z,-5.4
2019-04-11T02:44:50.720Z,-5.3
2019-04-11T02:45:44.949Z,-5.4
2019-04-11T02:46:35.169Z,-5.4
2019-04-11T02:47:27.499Z,-5.4
2019-04-11T02:48:20.395Z,-5.4
2019-04-11T02:49:11.539Z,-5.4
2019-04-11T02:50:03.638Z,-5.3
2019-04-11T02:50:56.305Z,-5.2
2019-04-11T02:51:49.340Z,-5.1
2019-04-11T02:52:44.419Z,-5.1
2019-04-11T02:53:36.774Z,-5.1
2019-04-11T02:54:28.323Z,-5
2019-04-11T02:55:20.981Z,-4.9
2019-04-11T02:56:11.964Z,-4.8
2019-04-11T02:57:03.212Z,-4.6
2019-04-11T02:57:54.384Z,-4.6
2019-04-11T02:58:46.375Z,-4.4
2019-04-11T02:59:38.893Z,-4.4
2019-04-11T03:00:30.978Z,-4.3
2019-04-11T03:01:24.090Z,-4.2
2019-04-11T03:02:17.410Z,-4.1
2019-04-11T03:03:13.062Z,-4.1
2019-04-11T03:04:04.852Z,-3.9
2019-04-11T03:04:56.484Z,-3.9
2019-04-11T03:05:47.537Z,-3.8
2019-04-11T03:06:39.611Z,-3.7
2019-04-11T03:07:31.958Z,-3.7
2019-04-11T03:08:24.621Z,-3.6
2019-04-11T03:09:17.691Z,-3.6
2019-04-11T03:10:09.819Z,-3.5
2019-04-11T03:11:02.680Z,-3.5
2019-04-11T03:11:54.623Z,-3.4
2019-04-11T03:12:47.567Z,-3.4
2019-04-11T03:13:38.735Z,-3.4
2019-04-11T03:14:45.909Z,-3.4
2019-04-11T03:15:39.797Z,-3.3
2019-04-11T03:16:32.532Z,-3.3
2019-04-11T03:17:22.900Z,-3.2
2019-04-11T03:18:32.865Z,-3.2
2019-04-11T03:19:20.767Z,-3.2
2019-04-11T03:20:15.239Z,-3.2
2019-04-11T03:21:06.063Z,-3.2
2019-04-11T03:21:57.095Z,-3.2
2019-04-11T03:22:56.692Z,-3.2
2019-04-11T03:23:46.745Z,-3.1
2019-04-11T03:24:38.518Z,-3.1
2019-04-11T03:25:30.631Z,-3.1
2019-04-11T03:26:22.465Z,-3.1
2019-04-11T03:27:13.397Z,-3.1
2019-04-11T03:28:05.109Z,-3.1
2019-04-11T03:28:59.747Z,-3.1
2019-04-11T03:29:51.588Z,-3.1
2019-04-11T03:31:03.587Z,-3.1
2019-04-11T03:33:24.057Z,-3
2019-04-11T03:35:08.839Z,-3
2019-04-11T03:37:32.936Z,-2.9
2019-04-11T03:38:29.165Z,-2.9
2019-04-11T03:39:21.073Z,-2.9
2019-04-11T03:40:21.831Z,-2.9
2019-04-11T03:41:15.358Z,-2.9
2019-04-11T03:42:09.327Z,-2.9
2019-04-11T03:43:01.068Z,-2.9
2019-04-11T03:43:53.774Z,-2.9
2019-04-11T03:44:44.827Z,-2.9
2019-04-11T03:45:52.319Z,-2.8
2019-04-11T03:46:47.399Z,-2.8
2019-04-11T03:47:37.266Z,-2.8
2019-04-11T03:48:36.588Z,-2.8
2019-04-11T03:49:28.796Z,-2.7
2019-04-11T03:50:21.887Z,-2.8
2019-04-11T03:51:10.970Z,-2.7
2019-04-11T03:52:03.575Z,-2.7
2019-04-11T03:52:56.203Z,-2.7
2019-04-11T03:53:49.092Z,-2.7
2019-04-11T03:54:40.937Z,-2.7
2019-04-11T03:55:34.853Z,-2.7
2019-04-11T03:56:26.597Z,-2.7
2019-04-11T03:57:18.084Z,-2.8
2019-04-11T03:58:09.183Z,-2.7
2019-04-11T03:59:01.394Z,-2.8
2019-04-11T03:59:54.300Z,-2.7
2019-04-11T04:00:46.616Z,-2.8
2019-04-11T04:01:38.137Z,-2.7
2019-04-11T04:02:30.587Z,-2.7
2019-04-11T04:03:22.438Z,-2.7
2019-04-11T04:04:15.429Z,-2.7
2019-04-11T04:05:08.890Z,-2.7
2019-04-11T04:06:01.893Z,-2.7
2019-04-11T04:06:52.976Z,-2.7
2019-04-11T04:07:44.340Z,-2.7
2019-04-11T04:08:36.272Z,-2.7
2019-04-11T04:09:29.088Z,-2.7
2019-04-11T04:10:20.397Z,-2.7
2019-04-11T04:11:12.293Z,-2.7
2019-04-11T04:12:04.867Z,-2.7
2019-04-11T04:12:57.803Z,-2.7
2019-04-11T04:13:49.813Z,-2.7
2019-04-11T04:14:44.509Z,-2.7
2019-04-11T04:15:43.998Z,-2.7
2019-04-11T04:16:38.437Z,-2.7
2019-04-11T04:17:27.754Z,-2.7
2019-04-11T04:18:19.178Z,-2.7
2019-04-11T04:19:13.430Z,-2.7
2019-04-11T04:20:05.726Z,-2.7
2019-04-11T04:20:57.595Z,-2.7
2019-04-11T04:21:49.105Z,-2.7
2019-04-11T04:22:41.888Z,-2.7
2019-04-11T04:23:33.625Z,-2.8
2019-04-11T04:24:25.087Z,-2.8
2019-04-11T04:25:16.624Z,-2.9
2019-04-11T04:26:09.987Z,-2.9
2019-04-11T04:27:02.033Z,-2.9
2019-04-11T04:27:54.585Z,-3
2019-04-11T04:28:47.353Z,-3.1
2019-04-11T04:29:38.701Z,-3.1
2019-04-11T04:30:29.959Z,-3.1
2019-04-11T04:31:22.227Z,-3.1
2019-04-11T04:32:14.192Z,-3.1
2019-04-11T04:33:06.670Z,-3.2
2019-04-11T04:33:58.207Z,-3.2
2019-04-11T04:34:50.756Z,-3.3
2019-04-11T04:35:44.709Z,-3.3
2019-04-11T04:36:35.803Z,-3.4
2019-04-11T04:37:27.048Z,-3.4
2019-04-11T04:38:18.872Z,-3.4
2019-04-11T04:39:10.627Z,-3.4
2019-04-11T04:40:17.468Z,-3.5
2019-04-11T04:41:06.991Z,-3.6
2019-04-11T04:42:01.005Z,-3.6
2019-04-11T04:42:53.117Z,-3.6
2019-04-11T04:43:44.878Z,-3.6
2019-04-11T04:44:35.748Z,-3.7
2019-04-11T04:45:27.623Z,-3.7
2019-04-11T04:46:34.319Z,-3.7
2019-04-11T04:47:24.579Z,-3.6
2019-04-11T04:48:22.320Z,-3.6
2019-04-11T04:49:15.291Z,-3.6
2019-04-11T04:50:06.499Z,-3.6
2019-04-11T04:51:01.564Z,-3.6
2019-04-11T04:51:53.823Z,-3.7
2019-04-11T04:52:46.198Z,-3.7
2019-04-11T04:53:38.870Z,-3.8
2019-04-11T04:54:30.741Z,-3.9
2019-04-11T04:55:23.371Z,-3.9
2019-04-11T04:56:16.696Z,-3.9
2019-04-11T04:57:12.835Z,-3.9
2019-04-11T04:58:04.890Z,-3.8
2019-04-11T04:58:56.079Z,-3.7
2019-04-11T04:59:47.071Z,-3.7
2019-04-11T05:00:39.748Z,-3.6
2019-04-11T05:01:31.542Z,-3.6
2019-04-11T05:02:24.052Z,-3.6
2019-04-11T05:03:19.878Z,-3.5
2019-04-11T05:04:11.321Z,-3.4
2019-04-11T05:05:05.899Z,-3.4
2019-04-11T05:05:58.306Z,-3.4
2019-04-11T05:06:50.661Z,-3.4
2019-04-11T05:07:43.980Z,-3.3
2019-04-11T05:08:35.730Z,-3.2
2019-04-11T05:09:26.612Z,-3.2
2019-04-11T05:10:17.497Z,-3.2
2019-04-11T05:11:08.370Z,-3.2
2019-04-11T05:11:59.275Z,-3.2
2019-04-11T05:12:51.360Z,-3.2
2019-04-11T05:13:45.108Z,-3.2
2019-04-11T05:14:39.277Z,-3.2
2019-04-11T05:15:30.310Z,-3.2
2019-04-11T05:16:21.186Z,-3.2
2019-04-11T05:17:12.867Z,-3.2
2019-04-11T05:18:04.168Z,-3.2
2019-04-11T05:18:55.131Z,-3.2
2019-04-11T05:19:48.964Z,-3.1
2019-04-11T05:20:40.709Z,-3.1
2019-04-11T05:21:31.721Z,-3.1
2019-04-11T05:22:22.592Z,-2.9
2019-04-11T05:23:13.909Z,-2.9
2019-04-11T05:24:06.109Z,-2.8
2019-04-11T05:25:00.138Z,-2.8
2019-04-11T05:25:53.022Z,-2.7
2019-04-11T05:26:44.023Z,-2.7
2019-04-11T05:27:35.713Z,-2.6
2019-04-11T05:28:27.664Z,-2.6
2019-04-11T05:29:19.532Z,-2.6
2019-04-11T05:30:11.226Z,-2.6
2019-04-11T05:31:02.556Z,-2.6
2019-04-11T05:31:54.606Z,-2.6
2019-04-11T05:32:45.562Z,-2.6
2019-04-11T05:33:36.970Z,-2.6
2019-04-11T05:34:28.077Z,-2.6
2019-04-11T05:35:18.956Z,-2.6
2019-04-11T05:36:09.825Z,-2.7
2019-04-11T05:37:01.808Z,-2.7
2019-04-11T05:37:53.596Z,-2.7
2019-04-11T05:38:44.607Z,-2.7
2019-04-11T05:39:35.903Z,-2.6
2019-04-11T05:40:28.094Z,-2.6
2019-04-11T05:41:21.395Z,-2.6
2019-04-11T05:42:17.655Z,-2.6
2019-04-11T05:43:09.635Z,-2.6
2019-04-11T05:44:03.042Z,-2.6
2019-04-11T05:44:56.918Z,-2.5
2019-04-11T05:45:48.398Z,-2.5
2019-04-11T05:46:51.969Z,-2.5
2019-04-11T05:47:39.290Z,-2.4
2019-04-11T05:48:30.505Z,-2.3
2019-04-11T05:49:22.840Z,-2.3
2019-04-11T05:50:14.105Z,-2.2
2019-04-11T05:51:04.980Z,-2.2
2019-04-11T05:51:58.573Z,-2.1
2019-04-11T05:52:50.376Z,-1.9
2019-04-11T05:53:41.621Z,-1.9
2019-04-11T05:54:33.224Z,-1.8
2019-04-11T05:55:24.127Z,-1.6
2019-04-11T05:56:19.116Z,-1.6
2019-04-11T05:57:11.249Z,-1.4
2019-04-11T05:58:05.778Z,-1.3
2019-04-11T05:58:58.032Z,-1.2
2019-04-11T05:59:49.848Z,-1.1
2019-04-11T06:00:41.804Z,-0.9
2019-04-11T06:01:32.683Z,-0.9
2019-04-11T06:02:24.814Z,-0.8
2019-04-11T06:03:16.008Z,-0.8
2019-04-11T06:04:07.870Z,-0.8
2019-04-11T06:04:58.815Z,-0.8
2019-04-11T06:05:49.946Z,-0.7
2019-04-11T06:06:41.765Z,-0.5
2019-04-11T06:07:32.827Z,-0.2
2019-04-11T06:08:27.043Z,0
2019-04-11T06:09:19.362Z,0.1
2019-04-11T06:10:12.659Z,0.3
2019-04-11T06:11:04.650Z,0.3
2019-04-11T06:11:57.587Z,0.4
2019-04-11T06:12:48.816Z,0.4
2019-04-11T06:13:40.628Z,0.4
2019-04-11T06:14:31.568Z,0.4
2019-04-11T06:15:22.988Z,0.5
2019-04-11T06:16:14.600Z,0.6
2019-04-11T06:17:05.553Z,0.7
2019-04-11T06:17:56.633Z,0.7
2019-04-11T06:18:48.108Z,0.6
2019-04-11T06:19:39.687Z,0.8
2019-04-11T06:20:31.292Z,0.8
2019-04-11T06:21:22.224Z,0.8
2019-04-11T06:22:13.090Z,0.8
2019-04-11T06:23:04.963Z,0.8
2019-04-11T06:23:55.959Z,0.8
2019-04-11T06:24:48.132Z,0.8
2019-04-11T06:25:43.161Z,0.9
2019-04-11T06:26:34.593Z,0.9
2019-04-11T06:27:25.481Z,1.1
2019-04-11T06:28:16.353Z,1.2
2019-04-11T06:29:15.279Z,1.3
2019-04-11T06:30:03.412Z,1.4
2019-04-11T06:30:56.997Z,1.4
2019-04-11T06:31:47.875Z,1.4
2019-04-11T06:32:38.749Z,1.6
2019-04-11T06:33:29.645Z,1.6
2019-04-11T06:34:22.577Z,1.7
2019-04-11T06:35:15.611Z,1.7
2019-04-11T06:36:06.553Z,1.8
2019-04-11T06:36:57.427Z,1.7
2019-04-11T06:37:48.297Z,1.7
2019-04-11T06:38:39.212Z,1.7
2019-04-11T06:39:30.084Z,1.7
2019-04-11T06:40:20.950Z,1.8
2019-04-11T06:41:12.476Z,1.8
2019-04-11T06:42:04.637Z,1.8
2019-04-11T06:42:56.620Z,2
2019-04-11T06:43:47.944Z,2.2
2019-04-11T06:44:39.737Z,2.4
2019-04-11T06:45:31.421Z,2.6
2019-04-11T06:46:22.368Z,2.6
2019-04-11T06:47:13.450Z,2.6
2019-04-11T06:48:05.252Z,2.7
2019-04-11T06:48:56.528Z,2.7
2019-04-11T06:49:47.430Z,2.9
2019-04-11T06:50:39.335Z,2.9
2019-04-11T06:51:30.476Z,3.1
2019-04-11T06:52:21.341Z,3.1
2019-04-11T06:53:12.209Z,3.2
2019-04-11T06:54:04.280Z,3.4
2019-04-11T06:54:56.091Z,3.4
2019-04-11T06:55:47.053Z,3.4
2019-04-11T06:56:37.964Z,3.4
2019-04-11T06:57:32.128Z,3.4
2019-04-11T06:58:23.482Z,3.4
2019-04-11T06:59:14.465Z,3.4
2019-04-11T07:00:05.344Z,3.4
2019-04-11T07:00:56.230Z,3.5
2019-04-11T07:01:47.572Z,3.5
2019-04-11T07:02:38.906Z,3.5
2019-04-11T07:03:30.776Z,3.5
2019-04-11T07:04:22.697Z,3.5
2019-04-11T07:05:13.982Z,3.5
2019-04-11T07:06:05.066Z,3.5
2019-04-11T07:06:55.978Z,3.5
2019-04-11T07:07:47.232Z,3.5
2019-04-11T07:08:38.471Z,3.6
2019-04-11T07:09:30.809Z,3.6
2019-04-11T07:10:22.320Z,3.6
2019-04-11T07:11:13.527Z,3.6
2019-04-11T07:12:05.499Z,3.6
2019-04-11T07:12:57.564Z,3.6
2019-04-11T07:13:49.812Z,3.6
2019-04-11T07:14:40.739Z,3.6
2019-04-11T07:15:31.642Z,3.6
2019-04-11T07:16:22.514Z,3.6
2019-04-11T07:17:13.762Z,3.6
2019-04-11T07:18:07.357Z,3.6
2019-04-11T07:18:58.316Z,3.6
2019-04-11T07:19:49.214Z,3.6
2019-04-11T07:20:41.308Z,3.6
2019-04-11T07:21:33.258Z,3.6
2019-04-11T07:22:25.199Z,3.6
2019-04-11T07:23:16.109Z,3.6
2019-04-11T07:24:07.468Z,3.6
2019-04-11T07:24:58.496Z,3.6
2019-04-11T07:25:49.432Z,3.7
2019-04-11T07:26:41.496Z,3.7
2019-04-11T07:27:32.425Z,3.7
2019-04-11T07:28:23.290Z,3.7
2019-04-11T07:29:15.175Z,3.7
2019-04-11T07:30:07.221Z,3.7
2019-04-11T07:30:58.175Z,3.7
2019-04-11T07:31:50.326Z,3.7
2019-04-11T07:32:41.270Z,3.7
2019-04-11T07:33:33.200Z,3.7
2019-04-11T07:34:24.275Z,3.7
2019-04-11T07:35:15.681Z,3.7
2019-04-11T07:36:06.640Z,3.7
2019-04-11T07:37:00.114Z,3.7
2019-04-11T07:37:51.182Z,3.7
2019-04-11T07:38:43.280Z,3.7
2019-04-11T07:39:35.357Z,3.7
2019-04-11T07:40:26.983Z,3.7
2019-04-11T07:41:19.440Z,3.8
2019-04-11T07:42:11.251Z,3.8
2019-04-11T07:43:07.242Z,3.8
2019-04-11T07:43:58.520Z,3.8
2019-04-11T07:44:49.535Z,3.8
2019-04-11T07:45:41.676Z,3.8
2019-04-11T07:46:32.855Z,3.8
2019-04-11T07:47:26.357Z,3.8
2019-04-11T07:48:17.586Z,3.8
2019-04-11T07:49:08.458Z,3.9
2019-04-11T07:50:03.103Z,3.9
2019-04-11T07:50:55.357Z,3.9
2019-04-11T07:51:46.363Z,3.9
2019-04-11T07:52:37.994Z,3.9
2019-04-11T07:53:30.454Z,3.9
2019-04-11T07:54:22.319Z,3.9
2019-04-11T07:55:13.313Z,3.9
2019-04-11T07:56:05.078Z,3.9
2019-04-11T07:56:55.999Z,3.9
2019-04-11T07:57:46.941Z,3.9
2019-04-11T07:58:37.813Z,3.9
2019-04-11T07:59:29.496Z,3.9
2019-04-11T08:00:32.240Z,3.9
2019-04-11T08:01:16.828Z,3.9
2019-04-11T08:02:08.762Z,3.9
2019-04-11T08:02:59.903Z,3.9
2019-04-11T08:03:51.270Z,3.9
2019-04-11T08:04:42.900Z,3.9
2019-04-11T08:05:34.534Z,4
2019-04-11T08:06:26.486Z,4
2019-04-11T08:07:17.695Z,4
2019-04-11T08:08:09.424Z,4
2019-04-11T08:09:00.431Z,4
2019-04-11T08:09:51.309Z,4
2019-04-11T08:10:43.592Z,4
2019-04-11T08:11:35.798Z,4.1
2019-04-11T08:12:27.570Z,4.1
2019-04-11T08:13:18.526Z,4.1
2019-04-11T08:14:10.459Z,4.1
2019-04-11T08:15:01.552Z,4.1
2019-04-11T08:15:53.647Z,4.1
2019-04-11T08:16:44.963Z,4.1
2019-04-11T08:17:40.369Z,4.1
2019-04-11T08:18:32.733Z,4.1
2019-04-11T08:19:24.666Z,4.1
2019-04-11T08:20:15.680Z,4.1
2019-04-11T08:21:06.593Z,4.1
2019-04-11T08:22:01.237Z,4.1
2019-04-11T08:22:52.106Z,4.1
2019-04-11T08:23:43.531Z,4.2
2019-04-11T08:24:34.537Z,4.2
2019-04-11T08:25:25.405Z,4.2
2019-04-11T08:26:16.307Z,4.2
2019-04-11T08:27:07.248Z,4.2
2019-04-11T08:28:01.072Z,4.2
2019-04-11T08:29:04.113Z,4.2
2019-04-11T08:29:54.757Z,4.2
2019-04-11T08:30:46.724Z,4.2
2019-04-11T08:31:38.287Z,4.2
2019-04-11T08:32:29.603Z,4.3
2019-04-11T08:33:20.528Z,4.3
2019-04-11T08:34:11.397Z,4.3
2019-04-11T08:35:06.088Z,4.3
2019-04-11T08:35:58.305Z,4.3
2019-04-11T08:36:50.488Z,4.3
2019-04-11T08:37:41.426Z,4.3
2019-04-11T08:38:36.353Z,4.4
2019-04-11T08:39:27.320Z,4.4
2019-04-11T08:40:18.187Z,4.4
2019-04-11T08:41:09.369Z,4.4
2019-04-11T08:42:01.025Z,4.4
2019-04-11T08:42:52.803Z,4.4
2019-04-11T08:43:43.776Z,4.4
2019-04-11T08:44:34.643Z,4.4
2019-04-11T08:45:25.788Z,4.4
2019-04-11T08:46:16.718Z,4.4
2019-04-11T08:47:07.892Z,4.4
2019-04-11T08:47:58.923Z,4.4
2019-04-11T08:48:51.101Z,4.4
2019-04-11T08:49:42.122Z,4.5
2019-04-11T08:50:33.000Z,4.5
2019-04-11T08:51:23.870Z,4.5
2019-04-11T08:52:15.911Z,4.5
2019-04-11T08:53:06.838Z,4.5
2019-04-11T08:54:01.537Z,4.5
2019-04-11T08:54:53.492Z,4.5
2019-04-11T08:55:51.841Z,4.5
2019-04-11T08:56:40.215Z,4.5
2019-04-11T08:57:31.816Z,4.5
2019-04-11T08:58:22.778Z,4.6
2019-04-11T08:59:13.642Z,4.6
2019-04-11T09:00:04.517Z,4.6
2019-04-11T09:00:57.342Z,4.6
2019-04-11T09:01:49.571Z,4.6
2019-04-11T09:02:40.889Z,4.6
2019-04-11T09:03:31.888Z,4.6
2019-04-11T09:04:23.880Z,4.6
2019-04-11T09:05:17.963Z,4.6
2019-04-11T09:06:09.297Z,4.6
2019-04-11T09:07:01.061Z,4.6
2019-04-11T09:07:52.101Z,4.6
2019-04-11T09:08:42.974Z,4.6
2019-04-11T09:09:33.871Z,4.6
2019-04-11T09:10:24.753Z,4.6
2019-04-11T09:11:16.874Z,4.6
2019-04-11T09:12:07.867Z,4.6
2019-04-11T09:12:58.758Z,4.7
2019-04-11T09:13:49.739Z,4.7
2019-04-11T09:14:40.605Z,4.7
2019-04-11T09:15:31.475Z,4.7
2019-04-11T09:16:23.605Z,4.7
2019-04-11T09:17:14.543Z,4.7
2019-04-11T09:18:08.881Z,4.7
2019-04-11T09:19:02.428Z,4.7
2019-04-11T09:19:54.978Z,4.7
2019-04-11T09:20:46.057Z,4.7
2019-04-11T09:21:37.237Z,4.7
2019-04-11T09:22:29.076Z,4.7
2019-04-11T09:23:20.058Z,4.7
2019-04-11T09:24:10.928Z,4.7
2019-04-11T09:25:03.282Z,4.7
2019-04-11T09:25:55.292Z,4.7
2019-04-11T09:26:47.756Z,4.7
2019-04-11T09:27:38.869Z,4.7
2019-04-11T09:28:29.867Z,4.7
2019-04-11T09:29:21.813Z,4.7
2019-04-11T09:30:14.677Z,4.7
2019-04-11T09:31:08.978Z,4.7
2019-04-11T09:32:00.260Z,4.7
2019-04-11T09:32:51.313Z,4.7
2019-04-11T09:33:42.349Z,4.7
2019-04-11T09:34:33.642Z,4.7
2019-04-11T09:35:24.733Z,4.7
2019-04-11T09:36:15.808Z,4.7
2019-04-11T09:37:06.836Z,4.7
2019-04-11T09:37:57.939Z,4.7
2019-04-11T09:38:48.987Z,4.7
2019-04-11T09:39:39.929Z,4.7
2019-04-11T09:40:31.912Z,4.7
2019-04-11T09:41:22.992Z,4.7
2019-04-11T09:42:13.984Z,4.7
2019-04-11T09:43:04.949Z,4.7
2019-04-11T09:43:56.044Z,4.7
2019-04-11T09:44:47.132Z,4.7
2019-04-11T09:45:38.136Z,4.8
2019-04-11T09:47:24.860Z,4.8
2019-04-11T09:48:18.170Z,4.8
2019-04-11T09:49:10.599Z,4.8
2019-04-11T09:50:04.218Z,4.8
2019-04-11T09:50:55.230Z,4.8
2019-04-11T09:51:46.117Z,4.8
2019-04-11T09:52:37.068Z,4.8
2019-04-11T09:53:28.289Z,4.9
2019-04-11T09:54:19.775Z,4.9
2019-04-11T09:55:10.791Z,4.9
2019-04-11T09:56:02.608Z,4.9
2019-04-11T09:56:53.967Z,4.9
2019-04-11T09:57:46.066Z,4.9
2019-04-11T09:58:37.900Z,4.9
2019-04-11T09:59:31.548Z,4.9
2019-04-11T10:00:22.865Z,4.9
2019-04-11T10:01:13.857Z,4.9
2019-04-11T10:02:05.876Z,4.9
2019-04-11T10:02:56.811Z,4.9
2019-04-11T10:03:48.602Z,4.9
2019-04-11T10:04:39.579Z,4.9
2019-04-11T10:05:30.532Z,4.9
2019-04-11T10:06:21.629Z,4.9
2019-04-11T10:07:13.118Z,4.9
2019-04-11T10:08:04.237Z,5
2019-04-11T10:08:55.435Z,5
2019-04-11T10:09:46.380Z,5
2019-04-11T10:10:40.282Z,5
2019-04-11T10:11:32.482Z,5
2019-04-11T10:12:24.169Z,5
2019-04-11T10:13:16.303Z,5
2019-04-11T10:14:07.342Z,5.1
2019-04-11T10:15:01.381Z,5.1
2019-04-11T10:15:53.580Z,5.1
2019-04-11T10:16:44.509Z,5.1
2019-04-11T10:17:35.990Z,5.1
2019-04-11T10:18:30.906Z,5.1
2019-04-11T10:19:24.189Z,5.1
2019-04-11T10:20:16.166Z,5.1
2019-04-11T10:21:07.137Z,5.1
2019-04-11T10:21:58.485Z,5.1
2019-04-11T10:22:49.456Z,5.1
2019-04-11T10:23:40.902Z,5.1
2019-04-11T10:24:32.613Z,5.1
2019-04-11T10:25:23.616Z,5.2
2019-04-11T10:26:14.487Z,5.2
2019-04-11T10:27:06.634Z,5.2
2019-04-11T10:27:57.597Z,5.2
2019-04-11T10:28:49.568Z,5.2
2019-04-11T10:29:40.531Z,5.2
2019-04-11T10:30:31.438Z,5.2
2019-04-11T10:31:22.459Z,5.2
2019-04-11T10:32:13.346Z,5.2
2019-04-11T10:33:04.526Z,5.2
2019-04-11T10:33:55.568Z,5.2
2019-04-11T10:34:46.448Z,5.2
2019-04-11T10:35:38.590Z,5.2
2019-04-11T10:36:29.587Z,5.2
2019-04-11T10:37:20.469Z,5.3
2019-04-11T10:38:11.950Z,5.3
2019-04-11T10:39:02.881Z,5.3
2019-04-11T10:39:53.761Z,5.3
2019-04-11T10:40:44.684Z,5.3
2019-04-11T10:41:35.717Z,5.3
2019-04-11T10:42:26.833Z,5.3
2019-04-11T10:43:18.253Z,5.3
2019-04-11T10:44:09.661Z,5.4
2019-04-11T10:45:00.564Z,5.4
2019-04-11T10:45:51.475Z,5.4
2019-04-11T10:46:42.349Z,5.4
2019-04-11T10:47:33.348Z,5.4
2019-04-11T10:48:34.436Z,5.4
2019-04-11T10:49:20.033Z,5.4
2019-04-11T10:50:11.111Z,5.4
2019-04-11T10:51:02.081Z,5.4
2019-04-11T10:51:53.941Z,5.4
2019-04-11T10:52:44.870Z,5.4
2019-04-11T10:53:35.739Z,5.5
2019-04-11T10:54:26.605Z,5.5
2019-04-11T10:55:17.757Z,5.5
2019-04-11T10:56:08.707Z,5.5
2019-04-11T10:56:59.886Z,5.5
2019-04-11T10:57:52.024Z,5.5
2019-04-11T10:58:42.994Z,5.5
2019-04-11T10:59:34.450Z,5.5
2019-04-11T11:00:25.400Z,5.5
2019-04-11T11:01:16.314Z,5.5
2019-04-11T11:02:07.182Z,5.5
2019-04-11T11:02:58.052Z,5.5
2019-04-11T11:03:49.336Z,5.6
2019-04-11T11:04:40.981Z,5.6
2019-04-11T11:05:32.494Z,5.6
2019-04-11T11:06:23.945Z,5.6
2019-04-11T11:07:15.877Z,5.6
2019-04-11T11:08:07.036Z,5.6
2019-04-11T11:08:57.911Z,5.6
2019-04-11T11:09:48.782Z,5.6
2019-04-11T11:10:39.745Z,5.6
2019-04-11T11:11:30.675Z,5.6
2019-04-11T11:12:21.542Z,5.6
2019-04-11T11:13:12.407Z,5.6
2019-04-11T11:14:03.271Z,5.6
2019-04-11T11:14:55.310Z,5.6
2019-04-11T11:15:47.474Z,5.6
2019-04-11T11:16:41.792Z,5.6
2019-04-11T11:17:52.559Z,5.6
2019-04-11T11:18:47.797Z,5.7
2019-04-11T11:19:43.526Z,5.7
2019-04-11T11:20:27.787Z,5.7
2019-04-11T11:21:17.660Z,5.7
2019-04-11T11:22:08.617Z,5.7
2019-04-11T11:23:00.138Z,5.7
2019-04-11T11:23:52.383Z,5.7
2019-04-11T11:24:44.194Z,5.7
2019-04-11T11:25:35.135Z,5.7
2019-04-11T11:26:26.600Z,5.7
2019-04-11T11:27:18.682Z,5.7
2019-04-11T11:28:09.606Z,5.7
2019-04-11T11:29:06.988Z,5.7
2019-04-11T11:29:56.313Z,5.7
2019-04-11T11:30:47.412Z,5.7
2019-04-11T11:31:38.603Z,5.7
2019-04-11T11:32:29.554Z,5.7
2019-04-11T11:33:20.423Z,5.8
2019-04-11T11:34:14.467Z,5.8
2019-04-11T11:35:07.305Z,5.8
2019-04-11T11:36:01.021Z,5.8
2019-04-11T11:36:54.498Z,5.8
2019-04-11T11:37:45.687Z,5.8
2019-04-11T11:38:37.694Z,5.8
2019-04-11T11:39:28.600Z,5.8
2019-04-11T11:40:19.576Z,5.9
2019-04-11T11:41:10.560Z,5.9
2019-04-11T11:42:02.067Z,5.9
2019-04-11T11:42:53.053Z,5.9
2019-04-11T11:43:43.922Z,5.9
2019-04-11T11:44:35.032Z,5.9
2019-04-11T11:45:25.925Z,5.9
2019-04-11T11:46:17.740Z,5.9
2019-04-11T11:47:09.978Z,5.9
2019-04-11T11:48:01.442Z,5.9
2019-04-11T11:48:54.139Z,5.9
2019-04-11T11:49:53.687Z,5.9
2019-04-11T11:50:40.917Z,5.9